No particular awareness of the weather is required.    There are no Weather-warnings


Meteo18 Weather Cam more information Meteo18 Weather Cam


Thunder radar more information blitzortung!


Rain radar more information rain snow radar


Visit our other weather sites:

Template documentation
and downloads

And another site



Weather Underground History page Text

Daily Summary for March 26, 2017 Units:  English    Metric   Both
« Previous Day
Next Day »
Daily Weekly Monthly Yearly Custom
  High: Low: Average:
Temperature: TemperatureC °F 8.7 °F 12.3 °F
Dew Point: DewpointC °F 4.6 °F 6.1 °F
Humidity: Humidity % 44 % 67 %
Wind Speed: WindSpeedKMH mph 0.0 mph 1.8 mph
Wind Gust: WindSpeedGustKMH mph - -
Wind:- - ESE
Pressure: PressurehPa in 1017.8 in -
Precipitation: 0.0 in    
Historical Graphs
 
 
Tabular Data for March 26, 2017
Time Temperature Dew Point Pressure Wind Wind Speed Wind Gust Humidity Rainfall Rate (Hourly)
TemperatureC °F DewpointC °F PressurehPa in Calm     Humidity % HourlyPrecipMM in
00:02 10.3 °F 7.5 °F 1017.8 in Calm   1.6 mph 83 % 0.0 in
00:07 10.3 °F 7.4 °F 1017.8 in East 4.8 mph 4.8 mph 82 % 0.0 in
00:12 10.5 °F 7.6 °F 1017.8 in ESE 1.6 mph 3.2 mph 82 % 0.0 in
00:17 10.6 °F 7.5 °F 1017.8 in Calm   4.8 mph 81 % 0.0 in
00:22 10.6 °F 7.5 °F 1017.8 in Calm   4.8 mph 81 % 0.0 in
00:27 10.6 °F 7.5 °F 1018.2 in East 1.6 mph 4.8 mph 81 % 0.0 in
00:37 10.7 °F 7.2 °F 1017.8 in ESE 1.6 mph 4.8 mph 79 % 0.0 in
00:42 10.7 °F 7.0 °F 1018.2 in East 1.6 mph 4.8 mph 78 % 0.0 in
00:47 10.7 °F 7.0 °F 1018.2 in East 1.6 mph 6.4 mph 78 % 0.0 in
00:57 10.6 °F 6.9 °F 1017.8 in Calm   6.4 mph 78 % 0.0 in
01:02 10.5 °F 7.0 °F 1017.8 in Calm   4.8 mph 79 % 0.0 in
01:12 10.3 °F 6.8 °F 1017.8 in Calm   3.2 mph 79 % 0.0 in
01:17 10.3 °F 6.8 °F 1017.8 in East 1.6 mph 1.6 mph 79 % 0.0 in
01:22 10.3 °F 6.8 °F 1018.2 in Calm   6.4 mph 79 % 0.0 in
01:32 10.2 °F 6.7 °F 1018.2 in Calm   6.4 mph 79 % 0.0 in
01:42 9.9 °F 6.4 °F 1018.2 in Calm   6.4 mph 79 % 0.0 in
01:52 9.7 °F 6.6 °F 1018.2 in Calm   6.4 mph 81 % 0.0 in
01:57 9.6 °F 6.5 °F 1018.2 in Calm   6.4 mph 81 % 0.0 in
03:02 9.6 °F 6.5 °F 1018.2 in Calm   4.8 mph 81 % 0.0 in
03:12 9.3 °F 6.4 °F 1018.2 in Calm   3.2 mph 82 % 0.0 in
03:17 9.2 °F 6.3 °F 1018.2 in Calm   3.2 mph 82 % 0.0 in
03:22 9.2 °F 6.3 °F 1018.2 in Calm   1.6 mph 82 % 0.0 in
03:32 9.1 °F 6.4 °F 1018.2 in Calm   3.2 mph 83 % 0.0 in
03:37 9.1 °F 6.4 °F 1018.2 in Calm   3.2 mph 83 % 0.0 in
03:42 9.1 °F 6.2 °F 1018.2 in Calm   3.2 mph 82 % 0.0 in
03:47 9.1 °F 6.2 °F 1018.2 in Calm   1.6 mph 82 % 0.0 in
03:52 9.2 °F 6.3 °F 1018.5 in Calm   1.6 mph 82 % 0.0 in
03:57 9.1 °F 6.2 °F 1018.5 in Calm   1.6 mph 82 % 0.0 in
04:02 9.1 °F 6.2 °F 1018.5 in Calm   1.6 mph 82 % 0.0 in
04:12 9.0 °F 6.1 °F 1018.5 in Calm     82 % 0.0 in
04:17 9.1 °F 6.2 °F 1018.5 in Calm     82 % 0.0 in
04:22 9.1 °F 6.2 °F 1018.5 in Calm     82 % 0.0 in
04:27 9.0 °F 6.1 °F 1018.5 in Calm     82 % 0.0 in
04:32 9.0 °F 6.1 °F 1018.5 in Calm     82 % 0.0 in
04:42 9.0 °F 6.3 °F 1018.5 in Calm     83 % 0.0 in
04:52 9.1 °F 6.2 °F 1018.5 in Calm   1.6 mph 82 % 0.0 in
04:57 9.1 °F 6.2 °F 1018.5 in Calm   1.6 mph 82 % 0.0 in
05:02 9.1 °F 6.2 °F 1018.5 in Calm   1.6 mph 82 % 0.0 in
05:12 9.1 °F 6.4 °F 1018.5 in Calm   1.6 mph 83 % 0.0 in
05:22 8.9 °F 6.2 °F 1018.5 in Calm     83 % 0.0 in
05:27 8.8 °F 6.1 °F 1018.2 in Calm     83 % 0.0 in
05:32 8.9 °F 6.2 °F 1018.5 in Calm     83 % 0.0 in
05:42 8.9 °F 6.2 °F 1018.2 in Calm     83 % 0.0 in
05:47 8.9 °F 6.2 °F 1018.2 in East 1.6 mph   83 % 0.0 in
05:52 8.9 °F 6.2 °F 1018.2 in Calm   1.6 mph 83 % 0.0 in
06:02 8.9 °F 6.2 °F 1018.2 in Calm   1.6 mph 83 % 0.0 in
06:12 8.9 °F 6.0 °F 1018.2 in Calm   1.6 mph 82 % 0.0 in
06:17 8.9 °F 6.0 °F 1018.2 in Calm   1.6 mph 82 % 0.0 in
06:22 8.9 °F 6.0 °F 1018.2 in Calm     82 % 0.0 in
06:32 8.9 °F 6.0 °F 1018.2 in Calm     82 % 0.0 in
06:37 8.9 °F 6.0 °F 1018.2 in Calm     82 % 0.0 in
06:42 8.8 °F 5.9 °F 1018.2 in Calm     82 % 0.0 in
06:47 8.9 °F 6.0 °F 1018.2 in Calm     82 % 0.0 in
06:52 8.9 °F 6.0 °F 1018.2 in Calm     82 % 0.0 in
07:02 8.8 °F 5.9 °F 1018.2 in Calm     82 % 0.0 in
07:12 8.8 °F 6.1 °F 1018.5 in Calm     83 % 0.0 in
07:17 8.7 °F 6.0 °F 1018.5 in Calm     83 % 0.0 in
07:22 8.7 °F 6.0 °F 1018.5 in Calm     83 % 0.0 in
07:32 8.7 °F 5.8 °F 1018.5 in Calm     82 % 0.0 in
07:37 8.7 °F 5.8 °F 1018.5 in Calm     82 % 0.0 in
07:42 8.8 °F 5.9 °F 1018.8 in Calm     82 % 0.0 in
07:47 8.8 °F 5.7 °F 1018.8 in Calm     81 % 0.0 in
07:52 8.8 °F 5.9 °F 1018.8 in Calm     82 % 0.0 in
08:02 8.7 °F 6.0 °F 1018.8 in Calm     83 % 0.0 in
08:12 8.8 °F 5.9 °F 1019.2 in Calm     82 % 0.0 in
08:17 8.7 °F 6.1 °F 1019.2 in Calm     84 % 0.0 in
08:22 8.7 °F 6.1 °F 1019.2 in Calm     84 % 0.0 in
08:32 8.8 °F 6.1 °F 1019.2 in Calm     83 % 0.0 in
08:37 8.9 °F 6.3 °F 1019.2 in Calm     84 % 0.0 in
08:42 8.9 °F 6.7 °F 1019.5 in Calm     86 % 0.0 in
08:52 8.9 °F 6.5 °F 1019.5 in Calm     85 % 0.0 in
09:02 9.2 °F 6.5 °F 1019.9 in Calm     83 % 0.0 in
09:07 9.3 °F 6.6 °F 1019.9 in Calm     83 % 0.0 in
09:12 9.3 °F 6.6 °F 1019.9 in Calm     83 % 0.0 in
09:17 9.4 °F 6.5 °F 1019.9 in Calm     82 % 0.0 in
09:22 9.6 °F 6.5 °F 1019.9 in Calm     81 % 0.0 in
09:32 9.7 °F 6.4 °F 1019.9 in Calm     80 % 0.0 in
09:42 9.9 °F 6.4 °F 1019.9 in Calm   3.2 mph 79 % 0.0 in
09:47 10.0 °F 6.7 °F 1019.9 in Calm   3.2 mph 80 % 0.0 in
09:52 10.0 °F 6.5 °F 1020.2 in Calm   3.2 mph 79 % 0.0 in
09:57 10.1 °F 6.6 °F 1020.2 in Calm   1.6 mph 79 % 0.0 in
10:02 10.2 °F 6.7 °F 1020.2 in Calm   1.6 mph 79 % 0.0 in
10:07 10.2 °F 6.3 °F 1020.2 in Calm   1.6 mph 77 % 0.0 in
10:12 10.3 °F 6.4 °F 1020.2 in Calm   1.6 mph 77 % 0.0 in
10:22 10.3 °F 6.1 °F 1020.2 in SSE 4.8 mph 4.8 mph 75 % 0.0 in
10:27 10.3 °F 5.9 °F 1020.2 in South 4.8 mph 6.4 mph 74 % 0.0 in
10:32 10.3 °F 6.3 °F 1020.2 in South 3.2 mph 6.4 mph 76 % 0.0 in
10:37 10.3 °F 6.1 °F 1020.5 in SSE 3.2 mph 8.0 mph 75 % 0.0 in
10:42 10.4 °F 6.5 °F 1020.5 in South 1.6 mph 8.0 mph 77 % 0.0 in
10:47 10.5 °F 6.4 °F 1020.5 in South 4.8 mph 8.0 mph 76 % 0.0 in
10:52 10.5 °F 6.3 °F 1020.5 in South 3.2 mph 8.0 mph 75 % 0.0 in
10:57 10.4 °F 6.0 °F 1020.5 in South 4.8 mph 8.0 mph 74 % 0.0 in
11:02 10.5 °F 6.3 °F 1020.5 in SSE 3.2 mph 8.0 mph 75 % 0.0 in
11:12 10.7 °F 6.4 °F 1020.5 in SSE 1.6 mph 8.0 mph 75 % 0.0 in
11:17 10.8 °F 6.7 °F 1020.5 in South 1.6 mph 8.0 mph 76 % 0.0 in
11:22 10.9 °F 6.4 °F 1020.9 in ESE 1.6 mph 8.0 mph 74 % 0.0 in
11:32 11.3 °F 6.4 °F 1020.9 in SE 6.4 mph 8.0 mph 72 % 0.0 in
11:37 11.4 °F 6.9 °F 1020.9 in SE 1.6 mph 8.0 mph 74 % 0.0 in
11:42 11.6 °F 6.7 °F 1020.9 in SE 3.2 mph 8.0 mph 72 % 0.0 in
11:47 11.7 °F 6.8 °F 1020.9 in SSE 3.2 mph 8.0 mph 72 % 0.0 in
11:52 11.9 °F 6.8 °F 1020.9 in SSE 3.2 mph 8.0 mph 71 % 0.0 in
12:02 12.4 °F 7.1 °F 1020.9 in SSW 1.6 mph 6.4 mph 70 % 0.0 in
12:12 12.9 °F 6.9 °F 1020.9 in SSE 1.6 mph 6.4 mph 67 % 0.0 in
12:17 13.2 °F 7.4 °F 1020.9 in SSW 3.2 mph 6.4 mph 68 % 0.0 in
12:22 13.3 °F 6.9 °F 1020.9 in Calm   6.4 mph 65 % 0.0 in
12:27 13.4 °F 7.0 °F 1020.9 in SE 1.6 mph 6.4 mph 65 % 0.0 in
12:32 13.8 °F 6.9 °F 1020.9 in Calm   6.4 mph 63 % 0.0 in
12:37 13.9 °F 6.7 °F 1020.9 in WSW 4.8 mph 6.4 mph 62 % 0.0 in
12:42 13.9 °F 7.2 °F 1020.9 in ENE 4.8 mph 6.4 mph 64 % 0.0 in
12:47 13.8 °F 7.1 °F 1020.9 in Calm   6.4 mph 64 % 0.0 in
12:52 14.0 °F 6.8 °F 1020.9 in Calm   6.4 mph 62 % 0.0 in
12:57 14.4 °F 7.7 °F 1020.9 in NNE 1.6 mph 8.0 mph 64 % 0.0 in
13:02 14.4 °F 7.0 °F 1020.9 in Calm   8.0 mph 61 % 0.0 in
13:12 14.9 °F 5.7 °F 1020.9 in ESE 3.2 mph 4.8 mph 54 % 0.0 in
13:17 15.0 °F 5.2 °F 1020.5 in Calm   4.8 mph 52 % 0.0 in
13:22 15.3 °F 6.3 °F 1020.5 in NE 1.6 mph 4.8 mph 55 % 0.0 in
13:32 14.9 °F 5.7 °F 1020.5 in ENE 6.4 mph 12.9 mph 54 % 0.0 in
13:37 14.9 °F 6.2 °F 1020.5 in NNE 6.4 mph 16.1 mph 56 % 0.0 in
13:42 14.8 °F 5.6 °F 1020.5 in NE 4.8 mph 16.1 mph 54 % 0.0 in
13:47 14.9 °F 5.9 °F 1020.5 in East 3.2 mph 19.3 mph 55 % 0.0 in
13:52 15.2 °F 6.5 °F 1020.5 in ENE 6.4 mph 19.3 mph 56 % 0.0 in
13:57 15.2 °F 6.5 °F 1020.5 in ENE 11.3 mph 19.3 mph 56 % 0.0 in
14:02 15.1 °F 5.6 °F 1020.5 in ENE 14.5 mph 19.3 mph 53 % 0.0 in
14:12 15.2 °F 5.1 °F 1020.2 in ENE 4.8 mph 19.3 mph 51 % 0.0 in
14:17 15.3 °F 5.5 °F 1020.2 in NE 4.8 mph 16.1 mph 52 % 0.0 in
14:22 15.3 °F 5.5 °F 1020.2 in ESE 4.8 mph 16.1 mph 52 % 0.0 in
14:32 15.6 °F 5.2 °F 1020.2 in East 11.3 mph 11.3 mph 50 % 0.0 in
14:37 15.6 °F 5.5 °F 1020.2 in ESE 3.2 mph 14.5 mph 51 % 0.0 in
14:42 15.9 °F 4.6 °F 1020.2 in SSW 3.2 mph 14.5 mph 47 % 0.0 in
14:47 15.9 °F 4.6 °F 1020.2 in ESE 1.6 mph 14.5 mph 47 % 0.0 in
14:52 15.9 °F 4.6 °F 1020.2 in Calm   12.9 mph 47 % 0.0 in
14:57 16.2 °F 5.8 °F 1019.9 in SE 1.6 mph 11.3 mph 50 % 0.0 in
15:02 16.3 °F 5.0 °F 1019.9 in Calm   11.3 mph 47 % 0.0 in
15:12 16.6 °F 5.8 °F 1019.9 in SSW 4.8 mph 9.7 mph 49 % 0.0 in
15:17 16.6 °F 5.5 °F 1019.9 in Calm   11.3 mph 48 % 0.0 in
15:22 16.9 °F 5.5 °F 1019.9 in SSW 4.8 mph 11.3 mph 47 % 0.0 in
15:27 16.9 °F 5.5 °F 1019.9 in Calm   11.3 mph 47 % 0.0 in
15:32 17.3 °F 5.9 °F 1019.9 in East 1.6 mph 11.3 mph 47 % 0.0 in
15:37 16.9 °F 4.9 °F 1019.9 in ESE 3.2 mph 8.0 mph 45 % 0.0 in
15:42 16.9 °F 5.5 °F 1019.9 in ESE 4.8 mph 8.0 mph 47 % 0.0 in
15:52 16.4 °F 5.1 °F 1019.9 in Calm   16.1 mph 47 % 0.0 in
15:57 16.7 °F 4.7 °F 1019.9 in ENE 3.2 mph 16.1 mph 45 % 0.0 in
16:02 16.9 °F 5.2 °F 1019.9 in East 1.6 mph 16.1 mph 46 % 0.0 in
16:12 17.1 °F 5.1 °F 1019.9 in East 6.4 mph 9.7 mph 45 % 0.0 in
16:17 16.9 °F 4.6 °F 1019.9 in SSE 1.6 mph 9.7 mph 44 % 0.0 in
16:22 17.2 °F 5.5 °F 1019.9 in South 1.6 mph 12.9 mph 46 % 0.0 in
16:32 17.2 °F 5.5 °F 1019.9 in East 9.7 mph 12.9 mph 46 % 0.0 in
16:37 17.1 °F 6.0 °F 1019.9 in NE 9.7 mph 11.3 mph 48 % 0.0 in
16:42 17.0 °F 5.0 °F 1019.9 in East 1.6 mph 11.3 mph 45 % 0.0 in
16:47 17.2 °F 5.5 °F 1019.9 in NE 1.6 mph 12.9 mph 46 % 0.0 in
16:52 17.0 °F 5.6 °F 1019.9 in NNE 8.0 mph 12.9 mph 47 % 0.0 in
17:02 16.8 °F 5.7 °F 1019.9 in ENE 1.6 mph 14.5 mph 48 % 0.0 in
17:07 16.9 °F 5.8 °F 1019.9 in North 4.8 mph 14.5 mph 48 % 0.0 in
17:12 17.1 °F 6.0 °F 1019.9 in NNE 11.3 mph 14.5 mph 48 % 0.0 in
17:17 17.1 °F 5.7 °F 1019.9 in NNW 9.7 mph 12.9 mph 47 % 0.0 in
17:22 16.9 °F 5.2 °F 1019.9 in ENE 3.2 mph 14.5 mph 46 % 0.0 in
17:32 17.0 °F 5.6 °F 1019.9 in ENE 3.2 mph 14.5 mph 47 % 0.0 in
17:42 17.0 °F 5.9 °F 1019.9 in West 1.6 mph 12.9 mph 48 % 0.0 in
17:47 16.8 °F 5.7 °F 1019.9 in NNE 3.2 mph 12.9 mph 48 % 0.0 in
17:52 16.6 °F 5.5 °F 1019.9 in Calm   9.7 mph 48 % 0.0 in
17:57 16.6 °F 6.1 °F 1019.9 in Calm   8.0 mph 50 % 0.0 in
18:02 16.7 °F 5.9 °F 1019.9 in NE 1.6 mph 8.0 mph 49 % 0.0 in
18:12 16.4 °F 5.9 °F 1019.5 in East 1.6 mph 6.4 mph 50 % 0.0 in
18:17 16.6 °F 5.5 °F 1019.5 in Calm   4.8 mph 48 % 0.0 in
18:22 16.8 °F 5.4 °F 1019.5 in Calm   4.8 mph 47 % 0.0 in
18:32 16.8 °F 5.4 °F 1019.5 in East 4.8 mph 8.0 mph 47 % 0.0 in
18:37 16.8 °F 5.4 °F 1019.5 in East 4.8 mph 8.0 mph 47 % 0.0 in
18:42 16.7 °F 5.6 °F 1019.5 in East 4.8 mph 8.0 mph 48 % 0.0 in
18:52 16.4 °F 5.7 °F 1019.5 in ENE 3.2 mph 9.7 mph 49 % 0.0 in
18:57 16.5 °F 6.6 °F 1019.5 in ENE 3.2 mph 8.0 mph 52 % 0.0 in
19:02 16.4 °F 6.2 °F 1019.5 in ENE 3.2 mph 8.0 mph 51 % 0.0 in
19:07 16.5 °F 6.3 °F 1019.5 in ENE 1.6 mph 8.0 mph 51 % 0.0 in
19:12 16.4 °F 6.2 °F 1019.2 in ENE 4.8 mph 8.0 mph 51 % 0.0 in
19:17 16.4 °F 6.5 °F 1019.5 in ENE 3.2 mph 8.0 mph 52 % 0.0 in
19:22 16.3 °F 6.4 °F 1019.2 in NE 4.8 mph 6.4 mph 52 % 0.0 in
19:27 16.2 °F 6.3 °F 1019.5 in ENE 3.2 mph 6.4 mph 52 % 0.0 in
19:32 16.1 °F 6.5 °F 1019.5 in ENE 3.2 mph 11.3 mph 53 % 0.0 in
19:37 15.9 °F 6.9 °F 1019.5 in Calm   11.3 mph 55 % 0.0 in
19:42 15.7 °F 6.9 °F 1019.5 in ENE 3.2 mph 11.3 mph 56 % 0.0 in
19:47 15.6 °F 6.6 °F 1019.5 in East 4.8 mph 6.4 mph 55 % 0.0 in
19:52 15.3 °F 6.6 °F 1019.5 in ENE 1.6 mph 6.4 mph 56 % 0.0 in
19:57 15.2 °F 6.5 °F 1019.5 in ENE 1.6 mph 6.4 mph 56 % 0.0 in
20:02 15.0 °F 6.8 °F 1019.5 in East 1.6 mph 6.4 mph 58 % 0.0 in
20:12 14.6 °F 6.7 °F 1019.5 in ENE 3.2 mph 4.8 mph 59 % 0.0 in
20:17 14.5 °F 6.3 °F 1019.5 in ENE 1.6 mph 3.2 mph 58 % 0.0 in
20:22 14.3 °F 6.4 °F 1019.5 in NE 3.2 mph 3.2 mph 59 % 0.0 in
20:32 14.2 °F 6.1 °F 1019.5 in NE 3.2 mph 3.2 mph 58 % 0.0 in
20:37 14.2 °F 6.1 °F 1019.5 in NE 1.6 mph 3.2 mph 58 % 0.0 in
20:42 14.1 °F 6.0 °F 1019.5 in NE 3.2 mph 3.2 mph 58 % 0.0 in
20:47 13.6 °F 6.2 °F 1019.5 in NNE 4.8 mph 4.8 mph 61 % 0.0 in
20:52 13.4 °F 6.0 °F 1019.9 in NNE 1.6 mph 3.2 mph 61 % 0.0 in
20:57 13.4 °F 6.0 °F 1019.9 in Calm   4.8 mph 61 % 0.0 in
21:02 13.1 °F 6.2 °F 1019.9 in Calm   4.8 mph 63 % 0.0 in
21:12 12.7 °F 6.1 °F 1019.9 in Calm   4.8 mph 64 % 0.0 in
21:17 12.4 °F 6.0 °F 1019.9 in Calm   1.6 mph 65 % 0.0 in
21:22 12.4 °F 6.0 °F 1020.2 in Calm     65 % 0.0 in
21:32 12.1 °F 5.9 °F 1020.2 in Calm     66 % 0.0 in
21:37 11.7 °F 6.0 °F 1020.2 in NW 1.6 mph 1.6 mph 68 % 0.0 in
21:42 11.3 °F 6.0 °F 1020.5 in Calm   1.6 mph 70 % 0.0 in
21:47 11.3 °F 6.0 °F 1020.5 in Calm   3.2 mph 70 % 0.0 in
21:52 11.1 °F 6.0 °F 1020.5 in Calm   3.2 mph 71 % 0.0 in
21:57 11.1 °F 6.0 °F 1020.5 in Calm     71 % 0.0 in
22:02 11.0 °F 5.9 °F 1020.5 in Calm     71 % 0.0 in
22:12 11.4 °F 5.9 °F 1020.5 in Calm     69 % 0.0 in
22:17 11.6 °F 5.9 °F 1020.5 in Calm     68 % 0.0 in
22:22 11.4 °F 5.7 °F 1020.5 in Calm     68 % 0.0 in
22:32 11.1 °F 5.8 °F 1020.5 in Calm     70 % 0.0 in
22:37 10.9 °F 5.8 °F 1020.5 in NW 1.6 mph   71 % 0.0 in
22:42 10.5 °F 5.7 °F 1020.5 in WNW 3.2 mph 3.2 mph 72 % 0.0 in
22:52 10.6 °F 5.8 °F 1020.5 in WNW 1.6 mph 3.2 mph 72 % 0.0 in
22:57 10.5 °F 5.9 °F 1020.5 in NNW 1.6 mph 3.2 mph 73 % 0.0 in
23:02 10.3 °F 5.9 °F 1020.2 in North 1.6 mph 3.2 mph 74 % 0.0 in
23:12 10.4 °F 6.0 °F 1020.5 in NNW 1.6 mph 3.2 mph 74 % 0.0 in
23:22 10.4 °F 6.0 °F 1020.5 in NNE 1.6 mph 3.2 mph 74 % 0.0 in
23:27 10.3 °F 5.9 °F 1020.5 in NNE 4.8 mph 4.8 mph 74 % 0.0 in
23:32 10.5 °F 5.9 °F 1020.5 in North 4.8 mph 4.8 mph 73 % 0.0 in
23:37 10.8 °F 6.0 °F 1020.5 in NNE 6.4 mph 11.3 mph 72 % 0.0 in
23:42 11.1 °F 6.0 °F 1020.5 in NE 3.2 mph 11.3 mph 71 % 0.0 in
23:47 11.2 °F 5.9 °F 1020.5 in East 1.6 mph 11.3 mph 70 % 0.0 in
23:52 11.0 °F 5.9 °F 1020.5 in ENE 3.2 mph 11.3 mph 71 % 0.0 in
23:57 10.8 °F 6.0 °F 1020.9 in Calm   6.4 mph 72 % 0.0 in
Meteo18
Compliments of Weather Underground - 4 mb

Script developed by  Jim McMurry - jmcmurry@mwt.net Adapted for the template by  Wim van der Kuil - Leuven-Template.eu

You find our weather info also at:

European Weather Network

Weather Underground

Equipment we use:

Weather-station
Davis Vue

Weather-program
Meteobridge

Weather-server
Raspberry PI 2 B+

Provider
1 and 1

Davis Vue

Meteobridge

Raspberry PI 2 B+

1 and 1